Fiatt, Illinois
Current Conditions -  °F | °C
As of 4:15 PM on Thursday 23 Oct 2014 (Local Time) from KMQB Reporting Station
Overcast Overcast  
Wind Chill: 15°   Ceiling: 9000
Heat Index: 15°   Visibility: 10mi
Dew Point:   Wind: 9mph
Humidity: 65%   Direction: 180°S
Pressure: 30.08"   Gusts: NA
Location:  40.56°N, 90.18°W
Report Text: KMQB 232115Z AUTO 18008KT 10SM SCT060 OVC090 15/08 A3008 RMK AO2 T01500084
Loading
Personal Weather Stations






























Interactive Weather Map
Tropical Storm Tracking
New forecast layout! Learn more

10-Day Weather Forecast

Advertisements
Track Severe Weather on mobile